Glorious Kauri — 3EYM6 — position and weather

sailwx.info

Track history (hours):
 
Tides and Currents Weather Stations Pressure Air Temp Water Temp Dewpoint Dewpoint Depression Visibility Wind Speed Wind Dir Waves Ship Positions

Glorious Kauri

Last reported at 2018-Jun-22 18:27 UTC. Time now 2018-Jun-22 18:56 UTC.
Position S 41°07' E 146°25'.

Length 185 m; draft 7.7 m.

Type: Cargo ship. MMSI: 373052000.

Date/timePositionNaut miles runAvg speedWind from/ knotsBaromVisibWave heightAir tempDewpointWater temp
2018-Jun-22 18:27S 41°07' E 146°25'0 0.1
2018-Jun-22 17:57S 41°07' E 146°25'0 0.0
2018-Jun-22 17:30S 41°07' E 146°25'0 0.1
2018-Jun-22 17:00S 41°07' E 146°25'0 0.0
2018-Jun-22 16:30S 41°07' E 146°25'0 0.1
2018-Jun-22 16:00S 41°07' E 146°25'0 0.0
2018-Jun-22 15:30S 41°07' E 146°25'0 0.1
2018-Jun-22 15:00S 41°07' E 146°25'0 0.1
2018-Jun-22 14:30S 41°07' E 146°25'0 0.0
2018-Jun-22 14:00S 41°07' E 146°25'0 0.0
2018-Jun-22 13:27S 41°07' E 146°25'0 0.0
2018-Jun-22 12:57S 41°07' E 146°25'0 0.1
2018-Jun-22 12:30S 41°07' E 146°25'0 0.0
2018-Jun-22 12:00S 41°07' E 146°25'0 0.1
2018-Jun-22 11:30S 41°07' E 146°25'0 0.1
2018-Jun-22 11:00S 41°07' E 146°25'0 0.0
2018-Jun-22 10:27S 41°07' E 146°25'0 0.2
2018-Jun-22 09:57S 41°07' E 146°25'1 1.5
2018-Jun-22 09:30S 41°06' E 146°25'3 6.2
2018-Jun-22 09:00S 41°03' E 146°24'510.7
2018-Jun-22 08:30S 40°58' E 146°23'612.0
2018-Jun-22 08:00S 40°52' E 146°22'612.1
2018-Jun-22 07:30S 40°46' E 146°21'612.3
2018-Jun-22 07:00S 40°40' E 146°21'612.2
2018-Jun-22 06:30S 40°34' E 146°20'612.3
2018-Jun-22 06:00S 40°28' E 146°20'612.4
2018-Jun-22 05:30S 40°22' E 146°19'612.5
2018-Jun-22 05:00S 40°15' E 146°18'612.4
2018-Jun-22 04:30S 40°09' E 146°18'612.3
2018-Jun-22 04:00S 40°03' E 146°17'140 9.9
2018-Jun-21 13:52S 38°30' E 148°33'411.4
2018-Jun-21 13:30S 38°27' E 148°37'611.6
2018-Jun-21 13:00S 38°24' E 148°43'611.6
2018-Jun-21 12:30S 38°21' E 148°49'612.0
2018-Jun-21 11:58S 38°17' E 148°56'612.2
2018-Jun-21 11:27S 38°14' E 149°03'511.8
2018-Jun-21 11:00S 38°11' E 149°08'612.0
2018-Jun-21 10:30S 38°08' E 149°15'612.1
2018-Jun-21 10:00S 38°05' E 149°21'611.7
2018-Jun-21 09:30S 38°02' E 149°28'511.2
2018-Jun-21 09:00S 37°58' E 149°33'24310.5
2018-Jun-20 09:49S 34°19' E 151°42'411.3
2018-Jun-20 09:30S 34°16' E 151°44'611.4
2018-Jun-20 09:00S 34°11' E 151°47'811.4
2018-Jun-20 08:20S 34°04' E 151°52'811.5
2018-Jun-20 07:36S 33°57' E 151°57'111.3
2018-Jun-20 07:29S 33°55' E 151°58'44 9.6
2018-Jun-20 02:56S 33°16' E 152°21'4 8.8
2018-Jun-20 02:30S 33°13' E 152°23'7 8.6
2018-Jun-20 01:44S 33°07' E 152°26'2 8.5
2018-Jun-20 01:30S 33°05' E 152°27'4 8.6
2018-Jun-20 01:00S 33°01' E 152°29'4 8.6
2018-Jun-20 00:30S 32°57' E 152°30'4 8.6
2018-Jun-20 00:00S 32°53' E 152°32'4 8.6
2018-Jun-19 23:30S 32°49' E 152°34'4 8.4
2018-Jun-19 23:00S 32°45' E 152°36'4 8.1
2018-Jun-19 22:30S 32°41' E 152°38'4 7.7
2018-Jun-19 22:00S 32°38' E 152°40'4 7.4
2018-Jun-19 21:30S 32°34' E 152°41'12 7.5
2018-Jun-19 19:57S 32°23' E 152°46'329 7.4
2018-Jun-17 23:29S 26°55' E 153°12'713.1
2018-Jun-17 22:56S 27°01' E 153°15'712.1
2018-Jun-17 22:19S 27°07' E 153°20'411.5
2018-Jun-17 22:01S 27°11' E 153°19'813.3
2018-Jun-17 21:23S 27°18' E 153°13'712.2
2018-Jun-17 20:48S 27°24' E 153°09'3 4.3
2018-Jun-17 20:09S 27°26' E 153°07'0 0.0
2018-Jun-17 09:16S 27°26' E 153°08'0 0.0
2018-Jun-17 08:58S 27°26' E 153°08'0 0.0
2018-Jun-17 08:25S 27°26' E 153°08'0 0.1
2018-Jun-17 07:50S 27°26' E 153°08'1 3.2
2018-Jun-17 07:29S 27°25' E 153°09'3 6.7
2018-Jun-17 07:00S 27°22' E 153°10'5 9.6
2018-Jun-17 06:30S 27°18' E 153°13'611.8
2018-Jun-17 06:00S 27°15' E 153°19'611.6
2018-Jun-17 05:30S 27°09' E 153°21'611.8
2018-Jun-17 05:00S 27°04' E 153°18'611.7
2018-Jun-17 04:30S 26°60' E 153°14'713.4
2018-Jun-17 03:59S 26°53' E 153°10'  
Track history (hours):
 
Tides and Currents Weather Stations Pressure Air Temp Water Temp Dewpoint Dewpoint Depression Visibility Wind Speed Wind Dir Waves Ship Positions

Glorious Kauri

Last reported at 2018-Jun-22 18:27 UTC. Time now 2018-Jun-22 18:56 UTC.
Position S 41°07' E 146°25'.

Length 185 m; draft 7.7 m.

Type: Cargo ship. MMSI: 373052000.

Date/timePositionNaut miles runAvg speedWind from/ knotsBaromVisibWave heightAir tempDewpointWater temp
2018-Jun-22 18:27S 41°07' E 146°25'0 0.1
2018-Jun-22 17:57S 41°07' E 146°25'0 0.0
2018-Jun-22 17:30S 41°07' E 146°25'0 0.1
2018-Jun-22 17:00S 41°07' E 146°25'0 0.0
2018-Jun-22 16:30S 41°07' E 146°25'0 0.1
2018-Jun-22 16:00S 41°07' E 146°25'0 0.0
2018-Jun-22 15:30S 41°07' E 146°25'0 0.1
2018-Jun-22 15:00S 41°07' E 146°25'0 0.1
2018-Jun-22 14:30S 41°07' E 146°25'0 0.0
2018-Jun-22 14:00S 41°07' E 146°25'0 0.0
2018-Jun-22 13:27S 41°07' E 146°25'0 0.0
2018-Jun-22 12:57S 41°07' E 146°25'0 0.1
2018-Jun-22 12:30S 41°07' E 146°25'0 0.0
2018-Jun-22 12:00S 41°07' E 146°25'0 0.1
2018-Jun-22 11:30S 41°07' E 146°25'0 0.1
2018-Jun-22 11:00S 41°07' E 146°25'0 0.0
2018-Jun-22 10:27S 41°07' E 146°25'0 0.2
2018-Jun-22 09:57S 41°07' E 146°25'1 1.5
2018-Jun-22 09:30S 41°06' E 146°25'3 6.2
2018-Jun-22 09:00S 41°03' E 146°24'510.7
2018-Jun-22 08:30S 40°58' E 146°23'612.0
2018-Jun-22 08:00S 40°52' E 146°22'612.1
2018-Jun-22 07:30S 40°46' E 146°21'612.3
2018-Jun-22 07:00S 40°40' E 146°21'612.2
2018-Jun-22 06:30S 40°34' E 146°20'612.3
2018-Jun-22 06:00S 40°28' E 146°20'612.4
2018-Jun-22 05:30S 40°22' E 146°19'612.5
2018-Jun-22 05:00S 40°15' E 146°18'612.4
2018-Jun-22 04:30S 40°09' E 146°18'612.3
2018-Jun-22 04:00S 40°03' E 146°17'140 9.9
2018-Jun-21 13:52S 38°30' E 148°33'411.4
2018-Jun-21 13:30S 38°27' E 148°37'611.6
2018-Jun-21 13:00S 38°24' E 148°43'611.6
2018-Jun-21 12:30S 38°21' E 148°49'612.0
2018-Jun-21 11:58S 38°17' E 148°56'612.2
2018-Jun-21 11:27S 38°14' E 149°03'511.8
2018-Jun-21 11:00S 38°11' E 149°08'612.0
2018-Jun-21 10:30S 38°08' E 149°15'612.1
2018-Jun-21 10:00S 38°05' E 149°21'611.7
2018-Jun-21 09:30S 38°02' E 149°28'511.2
2018-Jun-21 09:00S 37°58' E 149°33'24310.5
2018-Jun-20 09:49S 34°19' E 151°42'411.3
2018-Jun-20 09:30S 34°16' E 151°44'611.4
2018-Jun-20 09:00S 34°11' E 151°47'811.4
2018-Jun-20 08:20S 34°04' E 151°52'811.5
2018-Jun-20 07:36S 33°57' E 151°57'111.3
2018-Jun-20 07:29S 33°55' E 151°58'44 9.6
2018-Jun-20 02:56S 33°16' E 152°21'4 8.8
2018-Jun-20 02:30S 33°13' E 152°23'7 8.6
2018-Jun-20 01:44S 33°07' E 152°26'2 8.5
2018-Jun-20 01:30S 33°05' E 152°27'4 8.6
2018-Jun-20 01:00S 33°01' E 152°29'4 8.6
2018-Jun-20 00:30S 32°57' E 152°30'4 8.6
2018-Jun-20 00:00S 32°53' E 152°32'4 8.6
2018-Jun-19 23:30S 32°49' E 152°34'4 8.4
2018-Jun-19 23:00S 32°45' E 152°36'4 8.1
2018-Jun-19 22:30S 32°41' E 152°38'4 7.7
2018-Jun-19 22:00S 32°38' E 152°40'4 7.4
2018-Jun-19 21:30S 32°34' E 152°41'12 7.5
2018-Jun-19 19:57S 32°23' E 152°46'329 7.4
2018-Jun-17 23:29S 26°55' E 153°12'713.1
2018-Jun-17 22:56S 27°01' E 153°15'712.1
2018-Jun-17 22:19S 27°07' E 153°20'411.5
2018-Jun-17 22:01S 27°11' E 153°19'813.3
2018-Jun-17 21:23S 27°18' E 153°13'712.2
2018-Jun-17 20:48S 27°24' E 153°09'3 4.3
2018-Jun-17 20:09S 27°26' E 153°07'0 0.0
2018-Jun-17 09:16S 27°26' E 153°08'0 0.0
2018-Jun-17 08:58S 27°26' E 153°08'0 0.0
2018-Jun-17 08:25S 27°26' E 153°08'0 0.1
2018-Jun-17 07:50S 27°26' E 153°08'1 3.2
2018-Jun-17 07:29S 27°25' E 153°09'3 6.7
2018-Jun-17 07:00S 27°22' E 153°10'5 9.6
2018-Jun-17 06:30S 27°18' E 153°13'611.8
2018-Jun-17 06:00S 27°15' E 153°19'611.6
2018-Jun-17 05:30S 27°09' E 153°21'611.8
2018-Jun-17 05:00S 27°04' E 153°18'611.7
2018-Jun-17 04:30S 26°60' E 153°14'713.4
2018-Jun-17 03:59S 26°53' E 153°10'  

Dump ship's entire track history